Time;durP1;ratioP1;P1;durP2;ratioP2;P2;SDS_P1;SDS_P2;PMS_P1;PMS_P2;Temp;Humidity;BMP_temperature;BMP_pressure;BME280_temperature;BME280_humidity;BME280_pressure;Samples;Min_cycle;Max_cycle;Signal;HPM_P1;HPM_P2
2023/01/21 00:00:48;;;;;;;;;;;18.20;87.90;;;;;;5094080;28;20278;-47
2023/01/21 00:03:15;;;;;;;;;;;18.10;87.90;;;;;;5078413;28;19962;-51
2023/01/21 00:05:40;;;;;;;;;;;18.10;87.90;;;;;;5098200;28;19908;-48
2023/01/21 00:08:06;;;;;;;;;;;18.10;88.00;;;;;;5098052;28;19912;-49
2023/01/21 00:10:32;;;;;;;;;;;18.10;88.20;;;;;;5097719;28;20007;-50
2023/01/21 00:12:57;;;;;;;;;;;18.00;88.40;;;;;;5097430;28;20167;-51
2023/01/21 00:15:23;;;;;;;;;;;18.00;88.50;;;;;;5097590;28;20025;-46
2023/01/21 00:17:50;;;;;;;;;;;18.10;88.80;;;;;;5079723;28;19908;-46
2023/01/21 00:20:16;;;;;;;;;;;18.00;88.70;;;;;;5097733;28;19995;-47
2023/01/21 00:22:41;;;;;;;;;;;18.10;88.80;;;;;;5098130;28;20367;-49
2023/01/21 00:25:07;;;;;;;;;;;18.10;88.70;;;;;;5097950;28;19908;-49
2023/01/21 00:27:32;;;;;;;;;;;18.20;88.50;;;;;;5097552;28;20277;-45
2023/01/21 00:29:58;;;;;;;;;;;18.20;88.30;;;;;;5097476;28;19908;-49
2023/01/21 00:32:23;;;;;;;;;;;18.30;88.00;;;;;;5097641;28;20037;-48
2023/01/21 00:34:49;;;;;;;;;;;18.30;87.70;;;;;;5097344;28;19919;-47
2023/01/21 00:37:14;;;;;;;;;;;18.30;87.40;;;;;;5097563;28;19920;-46
2023/01/21 00:39:41;;;;;;;;;;;18.30;87.50;;;;;;5097606;28;20396;-50
2023/01/21 00:42:10;;;;;;;;;;;18.30;87.50;;;;;;5097141;28;19997;-47
2023/01/21 00:44:39;;;;;;;;;;;18.30;87.50;;;;;;5097462;28;19962;-48
2023/01/21 00:47:04;;;;;;;;;;;18.30;87.80;;;;;;5097014;28;20274;-51
2023/01/21 00:49:30;;;;;;;;;;;18.20;87.70;;;;;;5096939;28;19912;-48
2023/01/21 00:51:56;;;;;;;;;;;18.20;87.90;;;;;;5097209;28;20351;-47
2023/01/21 00:54:22;;;;;;;;;;;18.20;88.10;;;;;;5097260;28;19955;-45
2023/01/21 00:56:47;;;;;;;;;;;18.20;88.40;;;;;;5097199;28;19915;-48
2023/01/21 00:59:12;;;;;;;;;;;18.10;88.40;;;;;;5097522;28;20294;-49
2023/01/21 01:01:38;;;;;;;;;;;18.10;88.50;;;;;;5097194;28;19961;-47
2023/01/21 01:04:07;;;;;;;;;;;18.10;88.60;;;;;;5097110;28;20341;-49
2023/01/21 01:06:33;;;;;;;;;;;18.00;88.70;;;;;;5097096;28;20380;-46
2023/01/21 01:08:59;;;;;;;;;;;18.00;88.70;;;;;;5096988;28;19908;-46
2023/01/21 01:11:25;;;;;;;;;;;18.00;88.70;;;;;;5097231;28;19915;-46
2023/01/21 01:13:51;;;;;;;;;;;18.00;88.50;;;;;;5096242;28;20315;-46
2023/01/21 01:16:17;;;;;;;;;;;18.00;88.60;;;;;;5096681;28;19912;-46
2023/01/21 01:18:42;;;;;;;;;;;18.10;88.60;;;;;;5096597;28;19908;-47
2023/01/21 01:21:12;;;;;;;;;;;18.20;88.70;;;;;;5096827;28;19921;-47
2023/01/21 01:23:38;;;;;;;;;;;18.30;88.00;;;;;;5096860;28;19973;-46
2023/01/21 01:26:04;;;;;;;;;;;18.40;87.60;;;;;;5096740;28;19912;-47
2023/01/21 01:28:31;;;;;;;;;;;18.60;87.40;;;;;;5097005;28;19978;-49
2023/01/21 01:30:57;;;;;;;;;;;18.60;86.90;;;;;;5096362;28;20388;-49
2023/01/21 01:33:24;;;;;;;;;;;18.60;87.00;;;;;;5096271;28;19916;-46
2023/01/21 01:35:49;;;;;;;;;;;18.60;86.80;;;;;;5096323;28;19927;-50
2023/01/21 01:38:15;;;;;;;;;;;18.60;87.10;;;;;;5096526;28;19908;-50
2023/01/21 01:40:41;;;;;;;;;;;18.50;87.30;;;;;;5096391;28;19909;-48
2023/01/21 01:43:18;;;;;;;;;;;18.50;86.90;;;;;;5096824;28;19915;-46
2023/01/21 01:45:43;;;;;;;;;;;18.50;87.20;;;;;;5078274;28;19908;-48
2023/01/21 01:48:12;;;;;;;;;;;18.40;87.30;;;;;;5096006;28;20373;-47
2023/01/21 01:50:38;;;;;;;;;;;18.30;87.30;;;;;;5096308;28;19926;-47
2023/01/21 01:53:04;;;;;;;;;;;18.30;87.50;;;;;;5096005;28;19920;-47
2023/01/21 01:55:31;;;;;;;;;;;18.30;87.80;;;;;;5096171;28;19920;-51
2023/01/21 01:57:56;;;;;;;;;;;18.20;88.30;;;;;;5096125;28;20025;-50
2023/01/21 02:00:23;;;;;;;;;;;18.20;88.40;;;;;;5095790;28;19912;-48
2023/01/21 02:05:33;;;;;;;;;;;18.10;88.10;;;;;;5096011;28;20417;-46
2023/01/21 02:07:59;;;;;;;;;;;18.10;87.60;;;;;;5095810;28;19916;-48
2023/01/21 02:10:24;;;;;;;;;;;18.10;87.70;;;;;;5095896;28;19919;-47
2023/01/21 02:12:50;;;;;;;;;;;18.10;88.10;;;;;;5077450;28;20314;-46
2023/01/21 02:15:15;;;;;;;;;;;18.20;88.20;;;;;;5095456;28;20102;-49
2023/01/21 02:17:44;;;;;;;;;;;18.30;88.00;;;;;;5095552;28;19909;-44
2023/01/21 02:20:21;;;;;;;;;;;18.40;88.00;;;;;;5095627;28;19915;-45
2023/01/21 02:22:46;;;;;;;;;;;18.50;87.20;;;;;;5095639;28;20366;-48
2023/01/21 02:25:31;;;;;;;;;;;18.50;87.20;;;;;;5107560;28;19940;-47
2023/01/21 02:27:59;;;;;;;;;;;18.60;87.20;;;;;;5095436;28;19912;-45
2023/01/21 02:30:51;;;;;;;;;;;18.60;87.10;;;;;;5095465;28;19999;-46
2023/01/21 02:33:22;;;;;;;;;;;18.60;87.10;;;;;;5043716;28;19924;-50
2023/01/21 02:35:56;;;;;;;;;;;18.50;87.10;;;;;;5074913;28;19912;-47
2023/01/21 02:38:25;;;;;;;;;;;18.50;87.20;;;;;;5075050;28;20007;-46
2023/01/21 02:41:01;;;;;;;;;;;18.40;87.30;;;;;;5074807;28;20005;-45
2023/01/21 02:43:31;;;;;;;;;;;18.40;87.70;;;;;;5091238;28;20366;-45
2023/01/21 02:46:08;;;;;;;;;;;18.40;87.80;;;;;;5095145;28;19912;-46
2023/01/21 02:48:36;;;;;;;;;;;18.30;88.70;;;;;;5095185;28;20352;-48
2023/01/21 02:51:03;;;;;;;;;;;18.20;88.50;;;;;;5102528;28;19919;-46
2023/01/21 02:53:32;;;;;;;;;;;18.20;88.70;;;;;;5112652;28;19912;-49
2023/01/21 02:56:10;;;;;;;;;;;18.10;88.70;;;;;;5110160;28;19916;-45
2023/01/21 02:58:38;;;;;;;;;;;18.10;88.90;;;;;;5094566;28;19908;-45
2023/01/21 03:01:23;;;;;;;;;;;18.10;88.80;;;;;;5094792;28;19915;-46
2023/01/21 03:04:04;;;;;;;;;;;18.00;88.80;;;;;;5094635;28;19951;-46
2023/01/21 03:06:30;;;;;;;;;;;18.00;88.80;;;;;;5098104;28;20378;-46
2023/01/21 03:09:00;;;;;;;;;;;18.00;89.00;;;;;;5095620;28;20006;-46
2023/01/21 03:11:25;;;;;;;;;;;18.00;87.40;;;;;;5082658;28;19912;-49
2023/01/21 03:16:57;;;;;;;;;;;17.80;84.70;;;;;;5100604;28;19919;-45
2023/01/21 03:19:28;;;;;;;;;;;18.00;86.70;;;;;;5094315;28;19916;-45
2023/01/21 03:21:55;;;;;;;;;;;18.30;86.70;;;;;;5094351;28;20324;-49
2023/01/21 03:24:21;;;;;;;;;;;18.50;86.20;;;;;;5094234;28;19908;-50
2023/01/21 03:26:49;;;;;;;;;;;18.70;86.00;;;;;;5083045;28;19916;-47
2023/01/21 03:29:17;;;;;;;;;;;18.80;85.40;;;;;;5092082;28;20366;-47
2023/01/21 03:31:44;;;;;;;;;;;18.80;85.20;;;;;;5094313;28;19955;-46
2023/01/21 03:34:12;;;;;;;;;;;18.80;85.60;;;;;;5093950;28;19912;-48
2023/01/21 03:36:43;;;;;;;;;;;18.80;85.80;;;;;;5093961;28;19920;-52
2023/01/21 03:39:14;;;;;;;;;;;18.80;86.00;;;;;;5094023;28;19908;-45
2023/01/21 03:41:40;;;;;;;;;;;18.70;86.20;;;;;;5094391;28;19908;-47
2023/01/21 03:44:05;;;;;;;;;;;18.60;86.70;;;;;;5094169;28;20248;-47
2023/01/21 03:46:46;;;;;;;;;;;18.50;86.90;;;;;;5093976;28;19922;-51
2023/01/21 03:49:15;;;;;;;;;;;18.50;87.00;;;;;;5094060;28;19961;-51
2023/01/21 03:51:45;;;;;;;;;;;18.40;87.10;;;;;;5093904;28;19912;-48
2023/01/21 03:54:10;;;;;;;;;;;18.30;87.30;;;;;;5094213;28;19944;-50
2023/01/21 03:56:36;;;;;;;;;;;18.30;87.50;;;;;;5093873;28;19919;-47
2023/01/21 03:59:01;;;;;;;;;;;18.20;87.60;;;;;;5094105;28;20270;-48
2023/01/21 04:01:27;;;;;;;;;;;18.20;87.80;;;;;;5094086;28;20362;-51
2023/01/21 04:03:52;;;;;;;;;;;18.20;87.60;;;;;;5094091;28;19938;-46
2023/01/21 04:06:19;;;;;;;;;;;18.20;87.70;;;;;;5093733;28;19912;-48
2023/01/21 04:08:45;;;;;;;;;;;18.10;87.50;;;;;;5093904;28;19934;-45
2023/01/21 04:11:10;;;;;;;;;;;18.10;87.50;;;;;;5093675;28;19960;-50
2023/01/21 04:13:36;;;;;;;;;;;18.10;87.60;;;;;;5093795;28;20275;-50
2023/01/21 04:16:01;;;;;;;;;;;18.10;87.60;;;;;;5093911;28;20339;-46
2023/01/21 04:18:27;;;;;;;;;;;18.00;87.60;;;;;;5093553;28;19940;-46
2023/01/21 04:20:52;;;;;;;;;;;18.10;87.80;;;;;;5093669;28;20278;-47
2023/01/21 04:23:18;;;;;;;;;;;18.20;87.90;;;;;;5094217;28;19908;-48
2023/01/21 04:25:46;;;;;;;;;;;18.20;87.80;;;;;;5094266;28;19909;-47
2023/01/21 04:28:11;;;;;;;;;;;18.40;87.40;;;;;;5093556;28;19916;-47
2023/01/21 04:30:36;;;;;;;;;;;18.50;86.80;;;;;;5093813;28;19912;-49
2023/01/21 04:33:02;;;;;;;;;;;18.60;86.80;;;;;;5075614;28;20011;-46
2023/01/21 04:35:27;;;;;;;;;;;18.70;86.30;;;;;;5093766;28;19912;-49
2023/01/21 04:37:53;;;;;;;;;;;18.70;86.30;;;;;;5094074;28;19938;-47
2023/01/21 04:40:18;;;;;;;;;;;18.70;86.00;;;;;;5093499;28;19908;-48
2023/01/21 04:42:44;;;;;;;;;;;18.60;86.20;;;;;;5093668;28;19958;-46
2023/01/21 04:45:09;;;;;;;;;;;18.60;86.10;;;;;;5075459;28;19908;-48
2023/01/21 04:47:35;;;;;;;;;;;18.60;86.10;;;;;;5093618;28;19956;-47
2023/01/21 04:50:03;;;;;;;;;;;18.50;86.30;;;;;;5094814;28;19961;-48
2023/01/21 04:52:29;;;;;;;;;;;18.50;86.40;;;;;;5079068;28;19912;-46
2023/01/21 04:54:54;;;;;;;;;;;18.40;86.60;;;;;;5097278;28;20255;-49
2023/01/21 04:57:20;;;;;;;;;;;18.40;86.70;;;;;;5096971;28;19958;-49
2023/01/21 04:59:45;;;;;;;;;;;18.30;87.00;;;;;;5096979;28;19908;-47
2023/01/21 05:02:11;;;;;;;;;;;18.30;87.60;;;;;;5097185;28;20353;-48
2023/01/21 05:04:36;;;;;;;;;;;18.30;87.30;;;;;;5097175;28;19912;-45
2023/01/21 05:07:02;;;;;;;;;;;18.20;87.30;;;;;;5097400;28;19990;-47
2023/01/21 05:09:27;;;;;;;;;;;18.20;87.30;;;;;;5097020;28;19908;-48
2023/01/21 05:11:53;;;;;;;;;;;18.20;87.30;;;;;;5096866;28;19934;-46
2023/01/21 05:14:18;;;;;;;;;;;18.20;87.70;;;;;;5096468;28;19912;-46
2023/01/21 05:16:43;;;;;;;;;;;18.20;87.70;;;;;;5096793;28;19908;-46
2023/01/21 05:19:09;;;;;;;;;;;18.20;87.70;;;;;;5096460;28;20379;-48
2023/01/21 05:21:34;;;;;;;;;;;18.30;88.00;;;;;;5096727;28;19908;-47
2023/01/21 05:24:00;;;;;;;;;;;18.30;87.50;;;;;;5078562;28;19908;-48
2023/01/21 05:26:25;;;;;;;;;;;18.40;87.30;;;;;;5078607;28;19908;-48
2023/01/21 05:28:51;;;;;;;;;;;18.50;86.90;;;;;;5096673;28;19909;-47
2023/01/21 05:31:16;;;;;;;;;;;18.50;86.70;;;;;;5096644;28;19918;-47
2023/01/21 05:33:46;;;;;;;;;;;18.50;86.60;;;;;;5096517;28;19923;-50
2023/01/21 05:36:11;;;;;;;;;;;18.60;87.00;;;;;;5096344;28;19927;-51
2023/01/21 05:38:37;;;;;;;;;;;18.50;86.90;;;;;;5096256;28;19912;-48
2023/01/21 05:41:03;;;;;;;;;;;18.40;86.90;;;;;;5096425;28;19908;-47
2023/01/21 05:43:28;;;;;;;;;;;18.40;87.20;;;;;;5096339;28;20274;-50
2023/01/21 05:45:54;;;;;;;;;;;18.40;87.90;;;;;;5096314;28;19935;-51
2023/01/21 05:48:20;;;;;;;;;;;18.30;87.80;;;;;;5095896;28;19908;-48
2023/01/21 05:50:46;;;;;;;;;;;18.30;87.90;;;;;;5096287;28;19940;-47
2023/01/21 05:53:12;;;;;;;;;;;18.20;87.70;;;;;;5095906;28;19920;-47
2023/01/21 05:55:37;;;;;;;;;;;18.20;88.20;;;;;;5095774;28;20015;-48
2023/01/21 05:58:03;;;;;;;;;;;18.10;88.40;;;;;;5077858;28;19953;-49
2023/01/21 06:00:29;;;;;;;;;;;18.10;88.60;;;;;;5095507;28;19961;-47
2023/01/21 06:02:54;;;;;;;;;;;18.10;88.70;;;;;;5095980;28;19994;-47
2023/01/21 06:05:19;;;;;;;;;;;18.10;88.40;;;;;;5095905;28;19908;-46
2023/01/21 06:07:45;;;;;;;;;;;18.10;88.50;;;;;;5095872;28;19950;-49
2023/01/21 06:10:10;;;;;;;;;;;18.10;88.30;;;;;;5096040;28;19914;-49
2023/01/21 06:12:36;;;;;;;;;;;18.10;88.30;;;;;;5095728;28;20306;-50
2023/01/21 06:15:02;;;;;;;;;;;18.20;88.10;;;;;;5095654;28;19965;-49
2023/01/21 06:17:27;;;;;;;;;;;18.30;87.80;;;;;;5095940;28;20021;-50
2023/01/21 06:19:53;;;;;;;;;;;18.50;87.60;;;;;;5095654;28;19908;-50
2023/01/21 06:22:18;;;;;;;;;;;18.50;87.40;;;;;;5095645;28;20347;-46
2023/01/21 06:24:43;;;;;;;;;;;18.60;87.30;;;;;;5095556;28;20020;-50
2023/01/21 06:27:09;;;;;;;;;;;18.60;87.40;;;;;;5095462;28;19908;-52
2023/01/21 06:29:34;;;;;;;;;;;18.50;87.30;;;;;;5095354;28;20003;-48
2023/01/21 06:32:00;;;;;;;;;;;18.50;87.40;;;;;;5095007;28;20371;-50
2023/01/21 06:34:25;;;;;;;;;;;18.40;87.40;;;;;;5095330;28;19912;-48
2023/01/21 06:36:51;;;;;;;;;;;18.40;87.70;;;;;;5094680;28;20410;-49
2023/01/21 06:39:16;;;;;;;;;;;18.30;87.70;;;;;;5095285;28;19912;-46
2023/01/21 06:41:42;;;;;;;;;;;18.30;87.90;;;;;;5077054;28;20112;-47
2023/01/21 06:44:07;;;;;;;;;;;18.30;87.90;;;;;;5095190;28;19916;-49
2023/01/21 06:46:33;;;;;;;;;;;18.20;87.80;;;;;;5094903;28;19908;-47
2023/01/21 06:48:58;;;;;;;;;;;18.20;87.80;;;;;;5076878;28;19915;-51
2023/01/21 06:51:24;;;;;;;;;;;18.20;87.70;;;;;;5094753;28;19943;-48
2023/01/21 06:53:49;;;;;;;;;;;18.10;87.90;;;;;;5095011;28;19912;-48
2023/01/21 06:56:15;;;;;;;;;;;18.10;88.00;;;;;;5095414;28;19954;-47
2023/01/21 06:58:40;;;;;;;;;;;18.00;88.00;;;;;;5094546;28;20336;-50
2023/01/21 07:01:06;;;;;;;;;;;18.10;88.20;;;;;;5094463;28;19915;-45
2023/01/21 07:03:31;;;;;;;;;;;18.00;88.20;;;;;;5076611;28;19944;-49
2023/01/21 07:05:56;;;;;;;;;;;18.10;88.40;;;;;;5094727;28;19938;-45
2023/01/21 07:08:22;;;;;;;;;;;18.10;88.40;;;;;;5094361;28;20007;-46
2023/01/21 07:10:47;;;;;;;;;;;18.20;88.30;;;;;;5094400;28;19908;-45
2023/01/21 07:13:13;;;;;;;;;;;18.30;88.00;;;;;;5093762;28;20007;-45
2023/01/21 07:15:38;;;;;;;;;;;18.40;87.50;;;;;;5094214;28;20366;-47
2023/01/21 07:18:04;;;;;;;;;;;18.50;87.30;;;;;;5094355;28;19919;-47
2023/01/21 07:20:29;;;;;;;;;;;18.50;86.90;;;;;;5076239;28;19908;-48
2023/01/21 07:22:55;;;;;;;;;;;18.50;87.10;;;;;;5094479;28;19908;-48
2023/01/21 07:25:20;;;;;;;;;;;18.50;86.90;;;;;;5094416;28;19943;-46
2023/01/21 07:27:46;;;;;;;;;;;18.40;87.30;;;;;;5093963;28;19962;-46
2023/01/21 07:30:16;;;;;;;;;;;18.40;87.20;;;;;;5093870;28;19908;-48
2023/01/21 07:32:41;;;;;;;;;;;18.40;87.50;;;;;;5094213;28;19912;-46
2023/01/21 07:35:07;;;;;;;;;;;18.30;87.30;;;;;;5093947;28;20327;-47
2023/01/21 07:37:33;;;;;;;;;;;18.30;87.70;;;;;;5094209;28;20291;-48
2023/01/21 07:39:58;;;;;;;;;;;18.20;87.70;;;;;;5093964;28;19912;-47
2023/01/21 07:42:24;;;;;;;;;;;18.20;87.90;;;;;;5094066;28;19931;-50
2023/01/21 07:44:49;;;;;;;;;;;18.10;87.90;;;;;;5094406;28;19908;-45
2023/01/21 07:47:14;;;;;;;;;;;18.10;88.10;;;;;;5094000;28;19908;-48
2023/01/21 07:49:40;;;;;;;;;;;18.10;88.20;;;;;;5093681;28;19999;-50
2023/01/21 07:52:05;;;;;;;;;;;18.10;88.40;;;;;;5093932;28;19920;-46
2023/01/21 07:54:31;;;;;;;;;;;18.00;88.30;;;;;;5094090;28;19941;-45
2023/01/21 07:56:57;;;;;;;;;;;18.00;88.30;;;;;;5075938;28;19935;-49
2023/01/21 07:59:22;;;;;;;;;;;18.00;88.20;;;;;;5093794;28;19908;-51
2023/01/21 08:01:48;;;;;;;;;;;18.00;88.20;;;;;;5094037;28;19908;-47
2023/01/21 08:04:13;;;;;;;;;;;18.00;88.10;;;;;;5075903;28;19987;-50
2023/01/21 08:06:40;;;;;;;;;;;18.20;88.00;;;;;;5093651;28;20358;-51
2023/01/21 08:09:06;;;;;;;;;;;18.30;87.50;;;;;;5092325;28;20347;-50
2023/01/21 08:11:31;;;;;;;;;;;18.50;87.30;;;;;;5082134;28;19909;-48
2023/01/21 08:13:57;;;;;;;;;;;18.60;86.20;;;;;;5093845;28;20338;-49
2023/01/21 08:16:22;;;;;;;;;;;18.70;86.70;;;;;;5073378;28;19951;-52
2023/01/21 08:18:48;;;;;;;;;;;18.70;86.20;;;;;;5081830;28;19908;-47
2023/01/21 08:21:13;;;;;;;;;;;18.70;86.20;;;;;;5093318;28;19933;-53
2023/01/21 08:23:38;;;;;;;;;;;18.60;86.30;;;;;;5096196;28;19912;-48
2023/01/21 08:26:04;;;;;;;;;;;18.60;86.10;;;;;;5106124;28;19980;-51
2023/01/21 08:28:30;;;;;;;;;;;18.50;86.40;;;;;;5099772;28;19908;-51
2023/01/21 08:31:10;;;;;;;;;;;18.50;86.70;;;;;;5088958;28;19951;-48
2023/01/21 08:33:35;;;;;;;;;;;18.40;86.90;;;;;;5089592;28;20019;-50
2023/01/21 08:36:02;;;;;;;;;;;18.40;87.30;;;;;;5090154;28;20006;-47
2023/01/21 08:38:28;;;;;;;;;;;18.30;84.30;;;;;;5098764;28;20358;-50
2023/01/21 08:40:55;;;;;;;;;;;18.30;83.90;;;;;;5093290;28;19935;-49
2023/01/21 08:43:20;;;;;;;;;;;18.20;83.80;;;;;;5109201;28;19976;-53
2023/01/21 08:45:45;;;;;;;;;;;18.20;83.60;;;;;;5094937;28;19978;-47
2023/01/21 08:48:11;;;;;;;;;;;18.10;83.80;;;;;;5095859;28;20376;-53
2023/01/21 08:50:36;;;;;;;;;;;18.10;83.60;;;;;;5094205;28;19916;-51
2023/01/21 08:53:02;;;;;;;;;;;18.10;83.70;;;;;;5095101;28;20011;-51
2023/01/21 08:55:27;;;;;;;;;;;18.10;83.60;;;;;;5098045;28;19970;-51
2023/01/21 08:57:54;;;;;;;;;;;18.10;83.50;;;;;;5102369;28;20011;-50
2023/01/21 09:00:20;;;;;;;;;;;18.20;83.20;;;;;;5096677;28;20363;-51
2023/01/21 09:02:46;;;;;;;;;;;18.30;83.00;;;;;;5095886;28;19908;-47
2023/01/21 09:05:11;;;;;;;;;;;18.40;82.50;;;;;;5094999;28;20007;-53
2023/01/21 09:07:37;;;;;;;;;;;18.40;82.60;;;;;;5096795;28;19912;-50
2023/01/21 09:10:03;;;;;;;;;;;18.40;82.30;;;;;;5096280;28;19908;-48
2023/01/21 09:12:28;;;;;;;;;;;18.30;81.60;;;;;;5096157;28;20418;-49
2023/01/21 09:14:54;;;;;;;;;;;18.30;81.70;;;;;;5096668;28;19970;-52
2023/01/21 09:17:19;;;;;;;;;;;18.30;81.60;;;;;;5096901;28;20374;-51
2023/01/21 09:19:45;;;;;;;;;;;18.30;81.50;;;;;;5096454;28;19915;-49
2023/01/21 09:22:10;;;;;;;;;;;18.20;81.60;;;;;;5096883;28;19912;-51
2023/01/21 09:24:36;;;;;;;;;;;18.20;81.60;;;;;;5094657;28;19908;-50
2023/01/21 09:27:01;;;;;;;;;;;18.10;81.60;;;;;;5096062;28;19993;-50
2023/01/21 09:29:27;;;;;;;;;;;18.10;83.20;;;;;;5078268;28;19913;-52
2023/01/21 09:31:52;;;;;;;;;;;18.00;84.30;;;;;;5096039;28;20007;-51
2023/01/21 09:34:18;;;;;;;;;;;18.00;84.60;;;;;;5096234;28;19912;-48
2023/01/21 09:36:43;;;;;;;;;;;18.00;85.20;;;;;;5095206;28;20003;-50
2023/01/21 09:39:08;;;;;;;;;;;18.00;85.60;;;;;;5096143;28;19934;-49
2023/01/21 09:41:44;;;;;;;;;;;18.00;86.10;;;;;;5077846;28;19908;-49
2023/01/21 09:44:22;;;;;;;;;;;18.00;86.40;;;;;;5095499;28;19908;-50
2023/01/21 09:46:51;;;;;;;;;;;18.00;85.90;;;;;;5095959;28;19962;-47
2023/01/21 09:49:20;;;;;;;;;;;18.00;86.30;;;;;;5094777;28;20359;-47
2023/01/21 09:51:45;;;;;;;;;;;18.10;86.20;;;;;;5095772;28;20266;-50
2023/01/21 09:54:17;;;;;;;;;;;18.20;86.20;;;;;;5096812;28;19974;-47
2023/01/21 09:56:50;;;;;;;;;;;18.20;86.10;;;;;;5098801;28;20036;-46
2023/01/21 09:59:36;;;;;;;;;;;18.20;86.10;;;;;;5077835;28;20262;-48
2023/01/21 10:02:06;;;;;;;;;;;18.20;86.00;;;;;;5065792;28;19912;-47
2023/01/21 10:04:36;;;;;;;;;;;18.20;85.80;;;;;;5100743;28;19995;-50
2023/01/21 10:07:16;;;;;;;;;;;18.10;86.00;;;;;;5095722;28;19950;-51
2023/01/21 10:09:44;;;;;;;;;;;18.10;86.20;;;;;;5095903;28;19904;-50
2023/01/21 10:12:21;;;;;;;;;;;18.10;86.20;;;;;;5096276;28;19936;-48
2023/01/21 10:14:59;;;;;;;;;;;18.00;86.10;;;;;;5115750;28;19966;-52
2023/01/21 10:17:36;;;;;;;;;;;18.00;86.30;;;;;;5115689;28;19904;-46
2023/01/21 10:20:11;;;;;;;;;;;18.00;86.40;;;;;;5115711;28;19910;-49
2023/01/21 10:22:38;;;;;;;;;;;17.90;86.40;;;;;;5101851;28;19919;-50
2023/01/21 10:25:22;;;;;;;;;;;17.90;86.40;;;;;;5115605;28;20323;-46
2023/01/21 10:27:48;;;;;;;;;;;17.90;86.60;;;;;;5115782;28;19904;-50
2023/01/21 10:30:13;;;;;;;;;;;17.90;87.10;;;;;;5115438;28;19904;-50
2023/01/21 10:32:40;;;;;;;;;;;17.90;87.20;;;;;;5115310;28;19907;-48
2023/01/21 10:35:10;;;;;;;;;;;17.90;87.50;;;;;;5114915;28;19946;-50
2023/01/21 10:37:40;;;;;;;;;;;17.90;87.60;;;;;;5092037;28;19915;-50
2023/01/21 10:40:06;;;;;;;;;;;18.00;87.50;;;;;;5074482;28;19908;-45
2023/01/21 10:42:46;;;;;;;;;;;18.00;87.50;;;;;;5073492;28;19915;-50
2023/01/21 10:45:32;;;;;;;;;;;18.10;87.10;;;;;;5073946;28;19911;-47
2023/01/21 10:48:16;;;;;;;;;;;18.10;85.50;;;;;;5083022;28;20331;-50
2023/01/21 10:50:55;;;;;;;;;;;18.10;86.30;;;;;;5094583;28;19907;-46
2023/01/21 10:53:26;;;;;;;;;;;18.10;85.90;;;;;;5057421;28;19938;-49
2023/01/21 10:55:58;;;;;;;;;;;18.10;85.80;;;;;;5072961;28;19908;-48
2023/01/21 10:58:29;;;;;;;;;;;18.10;86.20;;;;;;5093546;28;19961;-48
2023/01/21 11:00:57;;;;;;;;;;;18.10;85.60;;;;;;5076181;28;19908;-48
2023/01/21 11:03:22;;;;;;;;;;;18.20;86.00;;;;;;5071493;28;20007;-49
2023/01/21 11:05:48;;;;;;;;;;;18.10;86.50;;;;;;5072284;28;20051;-47
2023/01/21 11:08:18;;;;;;;;;;;18.10;86.40;;;;;;5073988;28;19966;-49
2023/01/21 11:10:44;;;;;;;;;;;18.10;86.50;;;;;;5074040;28;19963;-52
2023/01/21 11:13:12;;;;;;;;;;;18.10;86.60;;;;;;5073634;28;20007;-47
2023/01/21 11:15:43;;;;;;;;;;;18.00;86.60;;;;;;5074121;28;20003;-49
2023/01/21 11:18:27;;;;;;;;;;;18.00;86.80;;;;;;5074351;28;20004;-49
2023/01/21 11:20:55;;;;;;;;;;;18.00;87.10;;;;;;5072961;28;19958;-51
2023/01/21 11:23:31;;;;;;;;;;;18.00;86.90;;;;;;5074158;28;19908;-47
2023/01/21 11:26:01;;;;;;;;;;;18.00;87.10;;;;;;5074304;28;19916;-50
2023/01/21 11:28:30;;;;;;;;;;;17.90;87.10;;;;;;5073867;28;19926;-51
2023/01/21 11:31:08;;;;;;;;;;;17.90;87.10;;;;;;5074570;28;19918;-48
2023/01/21 11:33:34;;;;;;;;;;;17.90;87.10;;;;;;5075640;28;19919;-49
2023/01/21 11:36:11;;;;;;;;;;;17.90;86.90;;;;;;5072464;28;19939;-47
2023/01/21 11:38:36;;;;;;;;;;;17.90;87.10;;;;;;5092614;28;19927;-51
2023/01/21 11:41:02;;;;;;;;;;;17.90;87.10;;;;;;5075830;28;19912;-48
2023/01/21 11:43:31;;;;;;;;;;;18.00;87.20;;;;;;5093818;28;20010;-47
2023/01/21 11:45:59;;;;;;;;;;;18.00;87.10;;;;;;5092411;28;19927;-47
2023/01/21 11:48:24;;;;;;;;;;;18.00;87.20;;;;;;5101554;28;19911;-49
2023/01/21 11:51:04;;;;;;;;;;;18.00;86.80;;;;;;5086606;28;19999;-52
2023/01/21 11:53:29;;;;;;;;;;;18.00;83.90;;;;;;5070034;28;19974;-49
2023/01/21 11:55:58;;;;;;;;;;;18.00;84.90;;;;;;5093222;28;20363;-47
2023/01/21 11:58:38;;;;;;;;;;;18.10;86.30;;;;;;5095711;28;19908;-55
2023/01/21 12:01:08;;;;;;;;;;;18.00;86.80;;;;;;5100718;28;19908;-51
2023/01/21 12:03:41;;;;;;;;;;;18.00;86.60;;;;;;5081929;28;19943;-49
2023/01/21 12:06:06;;;;;;;;;;;18.00;86.50;;;;;;5100220;28;19908;-51
2023/01/21 12:08:33;;;;;;;;;;;18.00;86.40;;;;;;5100598;28;20396;-50
2023/01/21 12:11:03;;;;;;;;;;;18.10;86.30;;;;;;5100470;28;20367;-48
2023/01/21 12:13:34;;;;;;;;;;;18.10;86.40;;;;;;5100504;28;19912;-51
2023/01/21 12:16:08;;;;;;;;;;;18.00;86.20;;;;;;5100158;28;20282;-47
2023/01/21 12:18:46;;;;;;;;;;;18.00;86.00;;;;;;5100147;28;19908;-49
2023/01/21 12:21:14;;;;;;;;;;;18.00;86.10;;;;;;5100002;28;20273;-45
2023/01/21 12:23:53;;;;;;;;;;;18.00;86.20;;;;;;5100019;28;19908;-46
2023/01/21 12:26:26;;;;;;;;;;;18.00;86.20;;;;;;5082145;28;19916;-48
2023/01/21 12:29:00;;;;;;;;;;;18.10;86.20;;;;;;5092178;28;20285;-47
2023/01/21 12:31:35;;;;;;;;;;;18.10;86.60;;;;;;5102507;28;19927;-47
2023/01/21 12:34:09;;;;;;;;;;;18.10;86.50;;;;;;5098865;28;19954;-52
2023/01/21 12:36:40;;;;;;;;;;;17.90;80.50;;;;;;5088714;28;20014;-46
2023/01/21 12:39:08;;;;;;;;;;;17.90;83.00;;;;;;5116506;28;19973;-48
2023/01/21 12:41:35;;;;;;;;;;;18.00;85.30;;;;;;5117975;28;19912;-46
2023/01/21 12:44:15;;;;;;;;;;;18.10;86.10;;;;;;5120419;28;19907;-47
2023/01/21 12:46:43;;;;;;;;;;;18.10;86.30;;;;;;5112391;28;19943;-50
2023/01/21 12:49:19;;;;;;;;;;;18.20;86.50;;;;;;5101023;28;19908;-46
2023/01/21 12:52:13;;;;;;;;;;;18.10;86.10;;;;;;5095324;28;20151;-48
2023/01/21 12:54:42;;;;;;;;;;;18.10;85.80;;;;;;5091743;28;20073;-46
2023/01/21 12:57:26;;;;;;;;;;;18.20;85.70;;;;;;5082724;28;19913;-48
2023/01/21 12:59:55;;;;;;;;;;;18.10;86.00;;;;;;5114493;28;19988;-48
2023/01/21 13:02:46;;;;;;;;;;;18.10;86.00;;;;;;5112048;28;19908;-48
2023/01/21 13:05:11;;;;;;;;;;;18.10;85.70;;;;;;5096530;28;19912;-47
2023/01/21 13:07:39;;;;;;;;;;;18.10;85.60;;;;;;5098700;28;20299;-52
2023/01/21 13:10:18;;;;;;;;;;;18.10;85.70;;;;;;5097134;28;19920;-47
2023/01/21 13:12:46;;;;;;;;;;;18.10;85.60;;;;;;5077295;28;19922;-50
2023/01/21 13:15:14;;;;;;;;;;;18.10;85.50;;;;;;5094640;28;19995;-46
2023/01/21 13:17:42;;;;;;;;;;;18.10;85.50;;;;;;5110920;28;20436;-49
2023/01/21 13:20:14;;;;;;;;;;;18.10;85.50;;;;;;5104333;28;19916;-49
2023/01/21 13:23:12;;;;;;;;;;;18.10;85.60;;;;;;5096271;28;19912;-48
2023/01/21 13:25:50;;;;;;;;;;;18.20;85.80;;;;;;5036442;28;20370;-52
2023/01/21 13:28:22;;;;;;;;;;;18.10;86.00;;;;;;5083933;28;19907;-50
2023/01/21 13:30:48;;;;;;;;;;;18.20;85.90;;;;;;5105627;28;19919;-46
2023/01/21 13:33:22;;;;;;;;;;;18.20;86.30;;;;;;5110942;28;20243;-46
2023/01/21 13:36:06;;;;;;;;;;;18.20;86.20;;;;;;5104817;28;20011;-50
2023/01/21 13:38:38;;;;;;;;;;;18.20;86.30;;;;;;5095388;28;20362;-50
2023/01/21 13:41:09;;;;;;;;;;;18.10;86.20;;;;;;5107313;28;20031;-50
2023/01/21 13:43:38;;;;;;;;;;;18.10;86.10;;;;;;5087616;28;19912;-49
2023/01/21 13:46:06;;;;;;;;;;;18.10;86.20;;;;;;5086490;28;19943;-48
2023/01/21 13:48:34;;;;;;;;;;;18.10;86.10;;;;;;5096086;28;19908;-50
2023/01/21 13:51:16;;;;;;;;;;;18.10;86.00;;;;;;5077718;28;19920;-51
2023/01/21 13:53:53;;;;;;;;;;;18.10;85.80;;;;;;5095345;28;19919;-52
2023/01/21 13:56:34;;;;;;;;;;;18.10;85.80;;;;;;5096181;28;19912;-51
2023/01/21 13:59:08;;;;;;;;;;;18.10;85.70;;;;;;5095732;28;19908;-47
2023/01/21 14:01:43;;;;;;;;;;;18.10;85.60;;;;;;5077758;28;20010;-49
2023/01/21 14:04:11;;;;;;;;;;;18.10;85.60;;;;;;5080011;28;19908;-52
2023/01/21 14:06:44;;;;;;;;;;;18.10;85.50;;;;;;5098884;28;19915;-48
2023/01/21 14:09:15;;;;;;;;;;;18.10;85.70;;;;;;5103726;28;20306;-49
2023/01/21 14:11:46;;;;;;;;;;;18.10;85.50;;;;;;5112102;28;19913;-48
2023/01/21 14:14:21;;;;;;;;;;;18.10;85.70;;;;;;5115784;28;20274;-52
2023/01/21 14:17:05;;;;;;;;;;;18.10;85.70;;;;;;5111406;28;19916;-48
2023/01/21 14:19:49;;;;;;;;;;;18.10;86.00;;;;;;5115796;28;19907;-47
2023/01/21 14:22:33;;;;;;;;;;;18.20;86.00;;;;;;5108623;28;20428;-46
2023/01/21 14:25:13;;;;;;;;;;;18.20;86.00;;;;;;5115809;28;19994;-46
2023/01/21 14:27:42;;;;;;;;;;;18.30;86.10;;;;;;5111719;28;20423;-46
2023/01/21 14:30:07;;;;;;;;;;;18.30;85.80;;;;;;5101153;28;20425;-51